createdAt,value
2023-08-14T00:01:37.825Z,4.60
2023-08-14T00:04:06.230Z,4.50
2023-08-14T00:06:34.679Z,4.30
2023-08-14T00:09:03.824Z,4.20
2023-08-14T00:11:32.227Z,4.40
2023-08-14T00:14:01.064Z,3.90
2023-08-14T00:16:29.180Z,4.90
2023-08-14T00:18:57.196Z,4.10
2023-08-14T00:21:25.360Z,4.40
2023-08-14T00:23:53.467Z,4.10
2023-08-14T00:26:21.758Z,3.90
2023-08-14T00:28:50.031Z,3.50
2023-08-14T00:31:18.417Z,4.00
2023-08-14T00:33:46.727Z,4.10
2023-08-14T00:36:14.824Z,4.70
2023-08-14T00:38:42.913Z,4.10
2023-08-14T00:41:12.084Z,4.70
2023-08-14T00:43:40.361Z,4.50
2023-08-14T00:46:08.820Z,5.20
2023-08-14T00:48:38.575Z,4.50
2023-08-14T00:51:06.754Z,4.70
2023-08-14T00:53:34.927Z,4.30
2023-08-14T00:56:04.275Z,3.90
2023-08-14T00:58:32.603Z,4.40
2023-08-14T01:01:01.424Z,5.10
2023-08-14T01:03:30.057Z,4.50
2023-08-14T01:05:58.309Z,5.20
2023-08-14T01:08:26.495Z,4.30
2023-08-14T01:11:37.403Z,4.10
2023-08-14T01:14:24.499Z,4.60
2023-08-14T01:16:59.769Z,4.70
2023-08-14T01:19:37.935Z,4.40
2023-08-14T01:22:26.400Z,4.00
2023-08-14T01:24:54.358Z,4.10
2023-08-14T01:27:23.834Z,3.70
2023-08-14T01:29:58.178Z,4.20
2023-08-14T01:32:26.467Z,4.30
2023-08-14T01:34:56.588Z,4.20
2023-08-14T01:37:24.644Z,3.60
2023-08-14T01:40:04.837Z,4.60
2023-08-14T01:42:39.226Z,4.90
2023-08-14T01:45:18.424Z,4.90
2023-08-14T01:47:49.402Z,4.60
2023-08-14T01:50:19.322Z,4.10
2023-08-14T01:52:47.673Z,4.10
2023-08-14T01:55:16.270Z,4.60
2023-08-14T01:57:44.198Z,4.10
2023-08-14T02:00:12.730Z,4.60
2023-08-14T02:02:40.799Z,4.30
2023-08-14T02:05:09.148Z,4.20
2023-08-14T02:07:37.164Z,4.10
2023-08-14T02:10:05.695Z,4.20
2023-08-14T02:12:33.738Z,5.10
2023-08-14T02:15:04.706Z,4.90
2023-08-14T02:17:32.771Z,4.50
2023-08-14T02:20:00.826Z,4.50
2023-08-14T02:22:29.240Z,5.40
2023-08-14T02:24:57.311Z,5.60
2023-08-14T02:27:25.403Z,5.00
2023-08-14T02:29:53.512Z,5.00
2023-08-14T02:32:21.620Z,5.00
2023-08-14T02:34:51.384Z,5.30
2023-08-14T02:37:19.867Z,4.70
2023-08-14T02:39:49.180Z,4.70
2023-08-14T02:42:18.728Z,4.70
2023-08-14T02:44:49.169Z,4.60
2023-08-14T02:47:17.953Z,5.00
2023-08-14T02:49:45.917Z,4.90
2023-08-14T02:52:13.902Z,4.50
2023-08-14T02:54:41.990Z,4.40
2023-08-14T02:57:10.108Z,4.40
2023-08-14T02:59:38.195Z,4.70
2023-08-14T03:02:06.489Z,4.00
2023-08-14T03:04:35.097Z,5.50
2023-08-14T03:07:04.123Z,5.80
2023-08-14T03:09:32.274Z,5.30
2023-08-14T03:12:00.306Z,5.50
2023-08-14T03:14:28.620Z,5.20
2023-08-14T03:16:56.781Z,5.30
2023-08-14T03:19:25.157Z,5.40
2023-08-14T03:21:53.949Z,5.10
2023-08-14T03:24:22.451Z,6.10
2023-08-14T03:26:50.507Z,5.40
2023-08-14T03:29:19.507Z,5.20
2023-08-14T03:31:47.747Z,4.60
2023-08-14T03:34:15.889Z,5.30
2023-08-14T03:36:44.789Z,4.90
2023-08-14T03:39:14.416Z,5.10
2023-08-14T03:41:42.702Z,4.60
2023-08-14T03:44:10.740Z,4.70
2023-08-14T03:46:40.237Z,5.00
2023-08-14T03:49:09.511Z,5.60
2023-08-14T03:51:38.394Z,5.50
2023-08-14T03:54:07.631Z,5.70
2023-08-14T03:56:35.782Z,4.80
2023-08-14T03:59:06.029Z,4.30
2023-08-14T04:02:49.727Z,4.90
2023-08-14T04:05:18.496Z,4.10
2023-08-14T04:07:47.430Z,4.30
2023-08-14T04:10:15.458Z,4.00
2023-08-14T04:12:44.720Z,4.30
2023-08-14T04:15:16.424Z,4.10
2023-08-14T04:17:45.637Z,4.80
2023-08-14T04:20:14.250Z,4.90
2023-08-14T04:22:42.680Z,5.40
2023-08-14T04:25:11.012Z,5.40
2023-08-14T04:27:39.766Z,5.10
2023-08-14T04:34:37.362Z,6.00
2023-08-14T04:37:06.373Z,6.40
2023-08-14T04:39:36.220Z,6.00
2023-08-14T04:42:04.385Z,5.50
2023-08-14T04:44:32.506Z,6.20
2023-08-14T11:04:38.508Z,2.60
2023-08-14T11:07:10.405Z,2.60
2023-08-14T11:09:39.815Z,2.80
2023-08-14T11:12:09.660Z,2.40
2023-08-14T11:14:40.926Z,2.30
2023-08-14T11:17:11.808Z,2.30
2023-08-14T11:19:40.448Z,2.50
2023-08-14T11:22:09.226Z,2.30
2023-08-14T11:24:39.316Z,2.50
2023-08-14T11:27:07.649Z,2.40
2023-08-14T11:29:45.014Z,2.40
2023-08-14T11:32:23.710Z,2.20
2023-08-14T11:34:53.120Z,2.50
2023-08-14T11:37:21.326Z,2.20
2023-08-14T11:39:50.477Z,2.40
2023-08-14T11:42:19.106Z,2.30
2023-08-14T11:44:47.733Z,2.10
2023-08-14T11:47:18.316Z,1.90
2023-08-14T11:49:46.438Z,2.40
2023-08-14T11:52:14.638Z,2.10
2023-08-14T11:54:46.131Z,2.40
2023-08-14T11:57:14.980Z,2.40
2023-08-14T11:59:45.585Z,2.20
2023-08-14T12:02:13.498Z,2.20
2023-08-14T12:04:42.141Z,2.20
2023-08-14T12:07:10.603Z,2.10
2023-08-14T12:09:39.470Z,2.00
2023-08-14T12:12:07.774Z,2.20
2023-08-14T12:14:41.708Z,2.10
2023-08-14T12:17:16.972Z,1.90
2023-08-14T12:19:54.229Z,2.00
2023-08-14T12:22:23.998Z,1.90
2023-08-14T12:24:53.014Z,1.80
2023-08-14T12:27:24.300Z,1.90
2023-08-14T12:29:53.767Z,1.90
2023-08-14T12:32:23.812Z,1.80
2023-08-14T12:34:53.595Z,1.80
2023-08-14T12:37:22.144Z,1.80
2023-08-14T12:39:55.600Z,2.10
2023-08-14T12:42:23.765Z,2.10
2023-08-14T12:44:54.372Z,2.00
2023-08-14T12:47:23.029Z,2.10
2023-08-14T12:49:51.566Z,1.90
2023-08-14T12:52:19.728Z,2.20
2023-08-14T12:55:04.439Z,1.80
2023-08-14T12:57:34.430Z,2.10
2023-08-14T13:00:03.807Z,2.30
2023-08-14T13:02:35.259Z,2.00
2023-08-14T13:05:05.223Z,2.30
2023-08-14T13:07:34.230Z,2.30
2023-08-14T13:10:03.123Z,2.40
2023-08-14T13:12:31.423Z,2.20
2023-08-14T13:14:59.598Z,2.30
2023-08-14T13:17:28.500Z,2.10
2023-08-14T13:19:56.743Z,1.90
2023-08-14T13:22:25.072Z,2.00
2023-08-14T13:24:55.124Z,2.00
2023-08-14T13:27:23.554Z,2.60
2023-08-14T13:29:52.080Z,2.40
2023-08-14T13:32:20.610Z,1.90
2023-08-14T13:34:50.628Z,2.10
2023-08-14T13:37:18.901Z,2.30
2023-08-14T13:39:48.302Z,2.20
2023-08-14T13:42:16.300Z,2.10
2023-08-14T13:44:44.967Z,2.30
2023-08-14T13:47:12.935Z,2.10
2023-08-14T13:49:41.014Z,2.30
2023-08-14T13:52:08.988Z,2.20
2023-08-14T13:54:38.005Z,2.20
2023-08-14T13:57:06.497Z,2.50
2023-08-14T13:59:34.561Z,2.30
2023-08-14T14:02:04.011Z,2.50
2023-08-14T14:04:32.281Z,2.30
2023-08-14T14:07:00.203Z,2.30
2023-08-14T14:09:28.345Z,2.50
2023-08-14T14:11:56.280Z,2.60
2023-08-14T14:14:24.235Z,2.50
2023-08-14T14:16:56.090Z,2.70
2023-08-14T14:19:25.690Z,2.80
2023-08-14T14:21:55.920Z,2.30
2023-08-14T14:24:25.507Z,2.60
2023-08-14T14:26:53.931Z,2.70
2023-08-14T14:29:22.111Z,2.90
2023-08-14T14:31:50.081Z,2.60
2023-08-14T14:34:18.731Z,2.70
2023-08-14T14:36:46.957Z,2.60
2023-08-14T14:39:19.628Z,2.80
2023-08-14T14:41:48.937Z,3.00
2023-08-14T14:44:17.021Z,2.90
2023-08-14T14:46:45.361Z,2.60
2023-08-14T14:49:13.361Z,2.80
2023-08-14T14:51:41.292Z,2.90
2023-08-14T14:54:09.345Z,2.80
2023-08-14T14:56:38.445Z,3.00
2023-08-14T14:59:06.713Z,2.90
2023-08-14T15:01:34.716Z,3.00
2023-08-14T15:04:04.291Z,3.50
2023-08-14T15:06:32.531Z,3.00
2023-08-14T15:09:00.626Z,5.40
2023-08-14T15:11:28.695Z,2.70
2023-08-14T15:13:56.818Z,2.90
2023-08-14T15:16:25.157Z,3.00
2023-08-14T15:18:53.041Z,3.10
2023-08-14T15:21:21.093Z,2.70
2023-08-14T15:23:49.064Z,3.10
2023-08-14T15:26:17.167Z,3.10
2023-08-14T15:28:45.378Z,2.80
2023-08-14T15:31:16.236Z,2.60
2023-08-14T15:33:44.185Z,2.90
2023-08-14T15:36:12.169Z,2.70
2023-08-14T15:38:40.312Z,2.80
2023-08-14T15:41:11.950Z,2.60
2023-08-14T15:43:42.116Z,2.70
2023-08-14T15:46:10.206Z,2.60
2023-08-14T15:48:41.263Z,2.70
2023-08-14T15:51:09.295Z,2.50
2023-08-14T15:53:37.167Z,2.50
2023-08-14T15:56:05.183Z,3.00
2023-08-14T15:58:33.092Z,2.60
2023-08-14T16:01:01.060Z,2.80
2023-08-14T16:03:29.176Z,2.60
2023-08-14T16:05:58.750Z,2.70
2023-08-14T16:08:26.939Z,2.40
2023-08-14T16:10:54.868Z,2.40
2023-08-14T16:13:23.151Z,2.30
2023-08-14T16:15:51.168Z,2.60
2023-08-14T16:18:19.086Z,2.20
2023-08-14T16:20:47.126Z,2.30
2023-08-14T16:23:17.155Z,3.00
2023-08-14T16:25:45.205Z,2.40
2023-08-14T16:28:13.291Z,2.40
2023-08-14T16:30:41.711Z,2.40
2023-08-14T16:33:10.439Z,2.50
2023-08-14T16:35:39.540Z,2.60
2023-08-14T16:38:07.679Z,2.40
2023-08-14T16:40:42.819Z,2.10
2023-08-14T16:43:11.534Z,2.20
2023-08-14T16:45:40.893Z,2.40
2023-08-14T16:48:11.289Z,2.40
2023-08-14T16:50:40.503Z,2.60
2023-08-14T16:53:09.948Z,2.40
2023-08-14T16:55:38.371Z,2.60
2023-08-14T16:58:06.424Z,2.40
2023-08-14T17:00:34.517Z,2.60
2023-08-14T17:03:05.704Z,2.40
2023-08-14T17:05:33.844Z,2.30
2023-08-14T17:08:03.138Z,2.10
2023-08-14T17:10:33.171Z,2.40
2023-08-14T17:13:02.530Z,2.40
2023-08-14T17:15:41.521Z,2.60
2023-08-14T17:18:09.561Z,2.60
2023-08-14T17:20:44.532Z,2.70
2023-08-14T17:23:13.191Z,2.50
2023-08-14T17:25:41.405Z,2.70
2023-08-14T17:28:09.349Z,2.70
2023-08-14T17:30:40.634Z,2.90
2023-08-14T17:33:08.606Z,2.80
2023-08-14T17:35:36.706Z,2.70
2023-08-14T17:38:05.001Z,2.80
2023-08-14T17:40:33.709Z,2.90
2023-08-14T17:43:02.040Z,2.80
2023-08-14T17:45:30.944Z,3.00
2023-08-14T17:47:59.660Z,2.90
2023-08-14T17:50:29.391Z,2.90
2023-08-14T17:52:57.716Z,2.90
2023-08-14T17:55:25.679Z,2.70
2023-08-14T17:57:53.756Z,2.60
2023-08-14T18:00:22.982Z,3.10
2023-08-14T18:02:52.322Z,3.00
2023-08-14T18:05:20.490Z,2.80
2023-08-14T18:07:48.806Z,2.80
2023-08-14T18:10:16.842Z,3.00
2023-08-14T18:12:46.676Z,2.80
2023-08-14T18:15:14.780Z,2.70
2023-08-14T18:17:42.865Z,3.00
2023-08-14T18:20:11.864Z,2.90
2023-08-14T18:22:40.258Z,3.30
2023-08-14T18:25:08.647Z,3.10
2023-08-14T18:27:36.999Z,3.00
2023-08-14T18:30:05.500Z,3.30
2023-08-14T18:32:33.409Z,3.10
2023-08-14T18:35:01.297Z,3.50
2023-08-14T18:37:29.169Z,3.10
2023-08-14T18:39:57.211Z,3.40
2023-08-14T18:42:25.600Z,3.50
2023-08-14T18:44:53.530Z,3.50
2023-08-14T18:47:21.450Z,3.60
2023-08-14T18:49:49.406Z,3.30
2023-08-14T18:52:17.393Z,3.50
2023-08-14T18:54:48.792Z,3.40
2023-08-14T18:57:17.425Z,3.70
2023-08-14T18:59:47.884Z,3.70
2023-08-14T19:04:42.286Z,4.10
2023-08-14T19:07:12.215Z,3.70
2023-08-14T19:09:41.217Z,3.60
2023-08-14T19:12:09.323Z,3.80
2023-08-14T19:14:37.792Z,4.10
2023-08-14T19:17:06.146Z,3.90
2023-08-14T19:19:34.725Z,4.80
2023-08-14T19:22:03.003Z,4.80
2023-08-14T19:24:31.170Z,4.70
2023-08-14T19:26:59.076Z,5.20
2023-08-14T19:29:27.033Z,4.40
2023-08-14T19:31:55.011Z,4.90
2023-08-14T19:34:23.011Z,5.20
2023-08-14T19:36:51.204Z,4.70
2023-08-14T19:39:19.273Z,6.10
2023-08-14T19:41:50.816Z,6.30
2023-08-14T19:44:18.930Z,5.70
2023-08-14T19:46:47.047Z,6.20
2023-08-14T19:49:15.278Z,7.70
2023-08-14T19:51:43.559Z,5.80
2023-08-14T19:54:11.486Z,7.10
2023-08-14T19:56:39.693Z,6.70
2023-08-14T19:59:09.116Z,6.90
2023-08-14T20:01:37.924Z,6.70
2023-08-14T20:04:07.047Z,6.40
2023-08-14T20:06:35.386Z,6.30
2023-08-14T20:09:03.573Z,6.50
2023-08-14T20:11:31.909Z,6.60
2023-08-14T20:14:01.087Z,6.90
2023-08-14T20:16:29.512Z,5.80
2023-08-14T20:18:57.580Z,6.60
2023-08-14T20:21:25.760Z,6.60
2023-08-14T20:23:53.696Z,7.20
2023-08-14T20:26:21.767Z,6.30
2023-08-14T20:28:50.206Z,7.50
2023-08-14T20:31:19.711Z,8.20
2023-08-14T20:33:47.956Z,7.80
2023-08-14T20:36:20.334Z,9.20
2023-08-14T20:38:49.505Z,7.50
2023-08-14T20:41:18.188Z,7.50
2023-08-14T20:43:46.236Z,8.30
2023-08-14T20:46:15.279Z,9.60
2023-08-14T20:48:43.300Z,8.80
2023-08-14T20:51:11.576Z,9.30
2023-08-14T20:53:40.855Z,9.10
2023-08-14T20:56:08.966Z,7.20
2023-08-14T20:58:37.272Z,7.40
2023-08-14T21:01:05.963Z,6.50
2023-08-14T21:03:34.048Z,9.40
2023-08-14T21:06:02.227Z,10.80
2023-08-14T21:08:30.441Z,11.40
2023-08-14T21:11:00.728Z,7.50
2023-08-14T21:13:30.512Z,7.40
2023-08-14T21:15:59.525Z,10.90
2023-08-14T21:18:27.556Z,7.60
2023-08-14T21:20:55.691Z,6.90
2023-08-14T21:23:23.703Z,7.30
2023-08-14T21:25:51.657Z,8.60
2023-08-14T21:28:19.764Z,10.30
2023-08-14T21:30:47.956Z,9.10
2023-08-14T21:33:16.039Z,7.40
2023-08-14T21:35:46.895Z,12.30
2023-08-14T21:38:14.900Z,6.60
2023-08-14T21:40:42.954Z,10.10
2023-08-14T21:43:11.127Z,7.60
2023-08-14T21:45:41.213Z,9.60
2023-08-14T21:48:09.490Z,9.20
2023-08-14T21:50:38.749Z,9.70
2023-08-14T21:53:06.962Z,9.90
2023-08-14T21:55:35.003Z,8.30
2023-08-14T21:58:03.119Z,8.50
2023-08-14T22:00:31.285Z,10.00
2023-08-14T22:02:59.375Z,8.60
2023-08-14T22:05:27.516Z,10.20
2023-08-14T22:07:57.390Z,8.70
2023-08-14T22:10:25.382Z,10.40
2023-08-14T22:12:53.408Z,8.40
2023-08-14T22:15:24.737Z,10.30
2023-08-14T22:17:58.202Z,10.20
2023-08-14T22:20:26.386Z,8.20
2023-08-14T22:22:54.239Z,9.70
2023-08-14T22:25:22.919Z,7.60
2023-08-14T22:27:51.047Z,8.20
2023-08-14T22:30:19.113Z,9.50
2023-08-14T22:32:47.101Z,9.70
2023-08-14T22:35:15.595Z,7.50
2023-08-14T22:37:43.953Z,7.80
2023-08-14T22:40:12.089Z,9.80
2023-08-14T22:42:40.894Z,11.70
2023-08-14T22:45:09.824Z,12.00
2023-08-14T22:47:39.634Z,11.70
2023-08-14T22:50:09.806Z,10.70
2023-08-14T22:52:38.068Z,10.20
2023-08-14T22:55:07.077Z,11.30
2023-08-14T22:57:35.514Z,10.30
2023-08-14T23:00:04.363Z,10.80
2023-08-14T23:02:32.246Z,10.50
2023-08-14T23:05:00.146Z,9.90
2023-08-14T23:07:28.151Z,10.10
2023-08-14T23:09:56.056Z,9.80
2023-08-14T23:12:24.364Z,9.60
2023-08-14T23:14:52.713Z,9.20
2023-08-14T23:17:20.737Z,9.00
2023-08-14T23:19:48.772Z,8.40
2023-08-14T23:22:16.791Z,9.60
2023-08-14T23:24:44.833Z,9.50
2023-08-14T23:27:12.765Z,8.90
2023-08-14T23:29:41.670Z,9.40
2023-08-14T23:32:11.940Z,9.90
2023-08-14T23:34:41.176Z,9.70
2023-08-14T23:37:09.283Z,10.10
2023-08-14T23:39:37.259Z,10.10
2023-08-14T23:42:05.729Z,10.20
2023-08-14T23:44:33.625Z,10.10
2023-08-14T23:47:03.570Z,10.00
2023-08-14T23:49:31.629Z,9.90
2023-08-14T23:51:59.506Z,9.70
2023-08-14T23:54:27.367Z,9.50
2023-08-14T23:56:55.387Z,9.40
2023-08-14T23:59:23.414Z,9.20
